Time;durP1;ratioP1;P1;durP2;ratioP2;P2;SDS_P1;SDS_P2;PMS_P1;PMS_P2;Temp;Humidity;BMP_temperature;BMP_pressure;BME280_temperature;BME280_humidity;BME280_pressure;Samples;Min_cycle;Max_cycle;Signal;HPM_P1;HPM_P2
2022/08/27 00:01:41;;;;;;;6.70;6.05;;;19.10;99.90;;;;;;5106879;28;20024;-49
2022/08/27 00:04:07;;;;;;;9.45;6.53;;;19.10;99.90;;;;;;5108425;28;20050;-46
2022/08/27 00:06:34;;;;;;;8.70;6.95;;;19.10;99.90;;;;;;5093239;28;20606;-49
2022/08/27 00:09:00;;;;;;;9.10;7.65;;;19.10;99.90;;;;;;5109612;28;20035;-47
2022/08/27 00:11:25;;;;;;;7.18;6.47;;;19.10;99.90;;;;;;5091866;28;20430;-47
2022/08/27 00:13:51;;;;;;;9.60;7.03;;;19.10;99.90;;;;;;5109560;28;20056;-48
2022/08/27 00:16:17;;;;;;;8.25;7.07;;;19.10;99.90;;;;;;5090424;28;20552;-48
2022/08/27 00:18:44;;;;;;;8.82;7.70;;;19.10;99.90;;;;;;5107975;28;20032;-47
2022/08/27 00:21:10;;;;;;;9.98;8.77;;;19.10;99.90;;;;;;5089154;28;20044;-50
2022/08/27 00:23:37;;;;;;;8.35;7.28;;;19.10;99.90;;;;;;5105870;28;20404;-47
2022/08/27 00:26:04;;;;;;;8.70;7.70;;;19.00;99.90;;;;;;5087875;28;20513;-47
2022/08/27 00:28:30;;;;;;;9.13;7.22;;;19.00;99.90;;;;;;5109014;28;20114;-49
2022/08/27 00:30:56;;;;;;;12.27;7.60;;;19.00;99.90;;;;;;5089186;28;20051;-47
2022/08/27 00:33:23;;;;;;;9.57;7.30;;;19.10;99.90;;;;;;5103426;28;20512;-46
2022/08/27 00:35:49;;;;;;;8.68;6.65;;;19.10;99.90;;;;;;5088767;28;20454;-46
2022/08/27 00:38:15;;;;;;;7.93;7.07;;;19.10;99.90;;;;;;5106361;28;20514;-46
2022/08/27 00:40:42;;;;;;;9.48;6.43;;;19.10;99.90;;;;;;5108820;28;20058;-49
2022/08/27 00:43:07;;;;;;;8.38;6.65;;;19.10;99.90;;;;;;5087320;28;20032;-47
2022/08/27 00:45:38;;;;;;;9.05;6.70;;;19.10;99.90;;;;;;5108403;28;20039;-47
2022/08/27 00:48:06;;;;;;;7.43;6.25;;;19.20;99.90;;;;;;5100353;28;20433;-47
2022/08/27 00:50:39;;;;;;;8.98;7.30;;;19.20;99.90;;;;;;5108785;28;20026;-47
2022/08/27 00:53:09;;;;;;;8.90;7.03;;;19.20;99.90;;;;;;5100375;28;20022;-50
2022/08/27 00:55:49;;;;;;;6.05;5.45;;;19.20;99.90;;;;;;5108871;28;20030;-47
2022/08/27 00:58:20;;;;;;;7.50;6.55;;;19.30;99.90;;;;;;5102751;28;20112;-48
2022/08/27 01:00:46;;;;;;;6.78;6.10;;;19.30;99.90;;;;;;5068232;28;20032;-50
2022/08/27 01:03:12;;;;;;;8.25;7.45;;;19.30;99.90;;;;;;5106260;28;20024;-50
2022/08/27 01:05:40;;;;;;;9.20;7.03;;;19.30;99.90;;;;;;5108637;28;20032;-48
2022/08/27 01:08:12;;;;;;;8.20;6.53;;;19.30;99.90;;;;;;5086966;28;20097;-46
2022/08/27 01:10:40;;;;;;;10.45;7.30;;;19.30;99.90;;;;;;5068284;28;20058;-47
2022/08/27 01:13:07;;;;;;;8.10;6.90;;;19.30;99.90;;;;;;5105981;28;20030;-52
2022/08/27 01:15:33;;;;;;;7.47;6.63;;;19.30;99.90;;;;;;5108600;28;20089;-46
2022/08/27 01:18:04;;;;;;;6.70;5.90;;;19.30;99.90;;;;;;5087013;28;20099;-54
2022/08/27 01:21:07;;;;;;;12.65;6.80;;;19.40;99.90;;;;;;5068244;28;20106;-49
2022/08/27 01:23:52;;;;;;;7.90;7.10;;;19.40;99.90;;;;;;5099660;28;20035;-52
2022/08/27 01:26:18;;;;;;;8.82;6.70;;;19.40;99.90;;;;;;5067830;28;20032;-49
2022/08/27 01:28:44;;;;;;;8.05;7.25;;;19.40;99.90;;;;;;5108579;28;20027;-48
2022/08/27 01:31:11;;;;;;;8.30;7.22;;;19.40;99.90;;;;;;5088595;28;20035;-52
2022/08/27 01:33:38;;;;;;;6.97;6.28;;;19.40;99.90;;;;;;5100998;28;20337;-48
2022/08/27 01:36:04;;;;;;;10.23;8.23;;;19.40;99.90;;;;;;5088214;28;20024;-52
2022/08/27 01:38:30;;;;;;;9.77;7.65;;;19.40;99.90;;;;;;5106041;28;20405;-51
2022/08/27 01:40:56;;;;;;;7.97;7.05;;;19.40;99.90;;;;;;5108198;28;20035;-49
2022/08/27 01:43:21;;;;;;;11.40;6.88;;;19.50;99.90;;;;;;5086712;28;20032;-47
2022/08/27 01:45:50;;;;;;;8.57;6.55;;;19.40;99.90;;;;;;5107634;28;20495;-52
2022/08/27 01:48:20;;;;;;;8.50;7.53;;;19.50;99.90;;;;;;5086368;28;20020;-50
2022/08/27 01:50:47;;;;;;;9.52;7.40;;;19.50;99.90;;;;;;5111088;28;20029;-51
2022/08/27 01:53:18;;;;;;;9.77;7.07;;;19.50;99.90;;;;;;5090282;28;20399;-53
2022/08/27 01:55:46;;;;;;;11.40;7.20;;;19.50;99.90;;;;;;5071330;28;20571;-47
2022/08/27 01:58:12;;;;;;;12.25;7.53;;;19.60;99.90;;;;;;5109464;28;20058;-46
2022/08/27 02:00:41;;;;;;;7.65;6.85;;;19.60;99.90;;;;;;5111694;28;20095;-49
2022/08/27 02:03:08;;;;;;;10.13;7.55;;;19.60;99.90;;;;;;5089911;28;20038;-47
2022/08/27 02:05:34;;;;;;;8.07;7.28;;;19.60;99.90;;;;;;5111086;28;20483;-49
2022/08/27 02:08:00;;;;;;;7.72;6.03;;;19.60;99.90;;;;;;5090091;28;20024;-47
2022/08/27 02:10:30;;;;;;;10.48;7.53;;;19.60;99.90;;;;;;5111087;28;20058;-50
2022/08/27 02:12:55;;;;;;;10.43;7.57;;;19.60;99.90;;;;;;5089519;28;20032;-52
2022/08/27 02:15:23;;;;;;;7.38;6.28;;;19.70;99.90;;;;;;5110924;28;20049;-51
2022/08/27 02:17:49;;;;;;;9.63;6.72;;;19.70;99.90;;;;;;5089761;28;20557;-51
2022/08/27 02:20:15;;;;;;;11.13;8.27;;;19.70;99.90;;;;;;5111142;28;20467;-49
2022/08/27 02:22:41;;;;;;;8.30;7.35;;;19.70;99.90;;;;;;5097491;28;20024;-60
2022/08/27 02:25:09;;;;;;;10.68;7.43;;;19.70;99.90;;;;;;5091657;28;20157;-61
2022/08/27 02:27:35;;;;;;;9.93;7.82;;;19.70;99.90;;;;;;5109025;28;20027;-60
2022/08/27 02:30:01;;;;;;;9.35;7.93;;;19.70;99.90;;;;;;5091478;28;20081;-60
2022/08/27 02:32:27;;;;;;;9.30;7.78;;;19.80;99.90;;;;;;5108874;28;20035;-55
2022/08/27 02:34:53;;;;;;;13.85;8.82;;;19.70;99.90;;;;;;5091121;28;20044;-55
2022/08/27 02:37:18;;;;;;;10.43;9.07;;;19.70;99.90;;;;;;5108617;28;20414;-56
2022/08/27 02:39:44;;;;;;;10.43;8.27;;;19.70;99.90;;;;;;5111198;28;20346;-51
2022/08/27 02:42:09;;;;;;;10.95;7.85;;;19.70;99.90;;;;;;5095483;28;20387;-55
2022/08/27 02:44:35;;;;;;;10.88;8.73;;;19.70;99.90;;;;;;5111050;28;20032;-51
2022/08/27 02:47:01;;;;;;;12.57;8.20;;;19.70;99.90;;;;;;5093928;28;20035;-55
2022/08/27 02:49:28;;;;;;;10.73;7.80;;;19.70;99.90;;;;;;5111099;28;20038;-53
2022/08/27 02:51:55;;;;;;;10.23;8.52;;;19.80;99.90;;;;;;5092606;28;20080;-54
2022/08/27 02:54:22;;;;;;;12.18;8.90;;;19.80;99.90;;;;;;5110854;28;20111;-50
2022/08/27 02:56:47;;;;;;;14.15;9.63;;;19.80;99.90;;;;;;5091445;28;20036;-53
2022/08/27 02:59:13;;;;;;;18.67;10.65;;;19.80;99.90;;;;;;5110848;28;20044;-53
2022/08/27 03:01:39;;;;;;;10.63;8.70;;;19.90;99.90;;;;;;5089987;28;20082;-59
2022/08/27 03:04:04;;;;;;;16.95;10.63;;;19.90;99.90;;;;;;5110791;28;20028;-60
2022/08/27 03:06:30;;;;;;;12.55;9.60;;;19.90;99.90;;;;;;5090781;28;20102;-56
2022/08/27 03:08:56;;;;;;;14.73;10.48;;;19.90;99.90;;;;;;5108712;28;20074;-56
2022/08/27 03:11:22;;;;;;;15.30;10.55;;;19.90;99.90;;;;;;5090727;28;20028;-56
2022/08/27 03:13:48;;;;;;;20.30;12.07;;;19.90;99.90;;;;;;5108031;28;20052;-56
2022/08/27 03:16:14;;;;;;;17.20;11.70;;;19.90;99.90;;;;;;5110375;28;20521;-56
2022/08/27 03:18:39;;;;;;;18.85;11.02;;;19.90;99.90;;;;;;5088762;28;20570;-56
2022/08/27 03:21:07;;;;;;;23.08;12.38;;;19.90;99.90;;;;;;5109672;28;20732;-55
2022/08/27 03:23:33;;;;;;;24.83;12.65;;;20.00;99.90;;;;;;5082189;28;20111;-56
2022/08/27 03:26:03;;;;;;;22.67;12.40;;;20.00;99.90;;;;;;5109685;28;20023;-54
2022/08/27 03:28:32;;;;;;;20.40;11.13;;;20.00;99.90;;;;;;5099759;28;20042;-55
2022/08/27 03:31:00;;;;;;;27.27;12.40;;;20.00;99.90;;;;;;5110547;28;20442;-56
2022/08/27 03:33:28;;;;;;;27.35;13.90;;;20.00;99.90;;;;;;5091466;28;20031;-54
2022/08/27 03:35:53;;;;;;;20.48;12.55;;;20.00;99.90;;;;;;5110079;28;20110;-54
2022/08/27 03:38:19;;;;;;;22.23;12.93;;;20.10;99.90;;;;;;5088461;28;20118;-52
2022/08/27 03:40:45;;;;;;;21.63;13.15;;;20.10;99.90;;;;;;5109100;28;20436;-56
2022/08/27 03:43:12;;;;;;;20.40;12.55;;;20.10;99.90;;;;;;5088089;28;20398;-55
2022/08/27 03:45:40;;;;;;;22.52;14.40;;;20.10;99.90;;;;;;5109622;28;20544;-49
2022/08/27 03:48:06;;;;;;;22.67;13.52;;;20.20;99.90;;;;;;5087944;28;20102;-54
2022/08/27 03:50:32;;;;;;;24.25;14.55;;;20.20;99.90;;;;;;5109088;28;20028;-52
2022/08/27 03:52:57;;;;;;;26.20;14.77;;;20.10;99.90;;;;;;5098912;28;20042;-50
2022/08/27 03:55:23;;;;;;;26.55;15.30;;;20.20;99.90;;;;;;5089838;28;20521;-53
2022/08/27 03:57:49;;;;;;;28.30;15.43;;;20.30;99.90;;;;;;5106899;28;20058;-53
2022/08/27 04:00:15;;;;;;;25.67;14.63;;;20.20;99.90;;;;;;5089668;28;20080;-55
2022/08/27 04:02:41;;;;;;;35.17;17.25;;;20.20;99.90;;;;;;5106982;28;20395;-52
2022/08/27 04:05:10;;;;;;;25.40;15.13;;;20.30;99.90;;;;;;5089733;28;20042;-51
2022/08/27 04:07:36;;;;;;;23.38;13.80;;;20.30;99.90;;;;;;5107333;28;20455;-51
2022/08/27 04:10:01;;;;;;;26.30;15.15;;;20.30;99.90;;;;;;5109679;28;20020;-56
2022/08/27 04:12:27;;;;;;;23.48;15.20;;;20.30;99.90;;;;;;5093140;28;20042;-54
2022/08/27 04:14:53;;;;;;;26.70;15.23;;;20.30;99.90;;;;;;5109835;28;20020;-54
2022/08/27 04:17:18;;;;;;;27.75;16.13;;;20.30;99.90;;;;;;5092387;28;20106;-55
2022/08/27 04:19:44;;;;;;;24.05;15.43;;;20.30;99.90;;;;;;5109437;28;20484;-56
2022/08/27 04:22:09;;;;;;;23.92;15.40;;;20.30;99.90;;;;;;5089845;28;20024;-55
2022/08/27 04:24:36;;;;;;;30.30;14.95;;;20.30;99.90;;;;;;5109577;28;20041;-54
2022/08/27 04:27:03;;;;;;;22.70;14.98;;;20.30;99.90;;;;;;5107168;28;20062;-56
2022/08/27 04:29:30;;;;;;;24.67;14.02;;;20.30;99.90;;;;;;5109337;28;20089;-55
2022/08/27 04:31:56;;;;;;;24.90;14.27;;;20.40;99.90;;;;;;5088740;28;20063;-52
2022/08/27 04:34:22;;;;;;;19.42;14.35;;;20.40;99.90;;;;;;5097426;28;20079;-53
2022/08/27 04:36:49;;;;;;;20.85;14.25;;;20.40;99.90;;;;;;5108403;28;20477;-52
2022/08/27 04:39:14;;;;;;;26.15;15.18;;;20.40;99.90;;;;;;5106666;28;20499;-52
2022/08/27 04:41:40;;;;;;;26.58;16.58;;;20.40;99.90;;;;;;5089077;28;20043;-56
2022/08/27 04:44:08;;;;;;;22.23;15.63;;;20.40;99.90;;;;;;5106622;28;20028;-53
2022/08/27 04:46:37;;;;;;;28.58;16.52;;;20.50;99.90;;;;;;5108824;28;20042;-52
2022/08/27 04:49:07;;;;;;;22.58;16.13;;;20.50;99.90;;;;;;5086939;28;20545;-53
2022/08/27 04:51:32;;;;;;;27.20;15.75;;;20.50;99.90;;;;;;5108739;28;20072;-53
2022/08/27 04:53:59;;;;;;;26.52;16.85;;;20.50;99.90;;;;;;5087420;28;20520;-55
2022/08/27 04:56:24;;;;;;;28.05;17.35;;;20.50;99.90;;;;;;5108288;28;20024;-56
2022/08/27 04:58:50;;;;;;;28.55;15.90;;;20.50;99.90;;;;;;5087169;28;20036;-56
2022/08/27 05:01:22;;;;;;;22.17;14.63;;;20.50;99.90;;;;;;5108257;28;20082;-53
2022/08/27 05:03:48;;;;;;;23.92;14.27;;;20.50;99.90;;;;;;5098295;28;20092;-53
2022/08/27 05:06:14;;;;;;;29.38;16.98;;;20.60;99.90;;;;;;5108649;28;20518;-53
2022/08/27 05:08:40;;;;;;;25.95;14.02;;;20.60;99.90;;;;;;5087222;28;20036;-57
2022/08/27 05:11:13;;;;;;;21.80;14.07;;;20.60;99.90;;;;;;5108170;28;20222;-52
2022/08/27 05:13:40;;;;;;;26.80;15.75;;;20.60;99.90;;;;;;5086579;28;20035;-53
2022/08/27 05:16:08;;;;;;;17.25;13.25;;;20.60;99.90;;;;;;5108264;28;20024;-53
2022/08/27 05:18:35;;;;;;;24.52;15.23;;;20.60;99.90;;;;;;5086858;28;20035;-53
2022/08/27 05:21:02;;;;;;;27.08;15.82;;;20.60;99.90;;;;;;5107938;28;20035;-55
2022/08/27 05:23:27;;;;;;;20.17;13.27;;;20.60;99.90;;;;;;5080608;28;20035;-57
2022/08/27 05:25:53;;;;;;;25.27;14.85;;;20.60;99.90;;;;;;5111670;28;20156;-53
2022/08/27 05:28:21;;;;;;;20.60;14.43;;;20.60;99.90;;;;;;5101853;28;20023;-56
2022/08/27 05:30:50;;;;;;;27.70;15.75;;;20.60;99.90;;;;;;5092293;28;20078;-52
2022/08/27 05:33:20;;;;;;;25.15;14.55;;;20.70;99.90;;;;;;5110126;28;20118;-54
2022/08/27 05:35:49;;;;;;;18.83;13.18;;;20.70;99.90;;;;;;5092227;28;20278;-55
2022/08/27 05:38:15;;;;;;;20.50;13.82;;;20.70;99.90;;;;;;5110441;28;20028;-51
2022/08/27 05:40:42;;;;;;;22.27;15.10;;;20.70;99.90;;;;;;5092302;28;20457;-54
2022/08/27 05:43:09;;;;;;;23.05;14.48;;;20.70;99.90;;;;;;5109960;28;20058;-53
2022/08/27 05:45:40;;;;;;;23.40;14.93;;;20.70;99.90;;;;;;5092310;28;20036;-54
2022/08/27 05:48:06;;;;;;;24.00;13.88;;;20.70;99.90;;;;;;5110515;28;20166;-53
2022/08/27 05:50:32;;;;;;;21.33;12.57;;;20.70;99.90;;;;;;5092269;28;20028;-54
2022/08/27 05:52:58;;;;;;;18.48;12.40;;;20.80;99.90;;;;;;5109518;28;20039;-54
2022/08/27 05:55:23;;;;;;;16.35;11.13;;;20.80;99.90;;;;;;5112181;27;20104;-53
2022/08/27 05:57:49;;;;;;;20.15;13.23;;;20.80;99.90;;;;;;5096239;28;20027;-55
2022/08/27 06:02:59;;;;;;;17.95;11.70;;;20.90;99.90;;;;;;5084177;28;20038;-53
2022/08/27 06:05:24;;;;;;;18.40;12.13;;;21.00;99.90;;;;;;5112233;27;20032;-52
2022/08/27 06:07:50;;;;;;;16.67;11.05;;;21.10;99.90;;;;;;5096118;28;20230;-51
2022/08/27 06:10:15;;;;;;;20.50;12.13;;;21.10;99.90;;;;;;5111922;28;20054;-53
2022/08/27 06:12:41;;;;;;;15.05;12.07;;;21.10;99.90;;;;;;5094506;28;20036;-56
2022/08/27 06:15:06;;;;;;;17.80;12.35;;;21.10;99.90;;;;;;5112079;28;20421;-53
2022/08/27 06:17:32;;;;;;;16.30;12.20;;;21.10;99.90;;;;;;5093095;28;20053;-53
2022/08/27 06:19:58;;;;;;;17.67;11.00;;;21.10;99.90;;;;;;5111708;28;20036;-56
2022/08/27 06:22:23;;;;;;;14.45;10.05;;;21.10;99.90;;;;;;5091124;28;20040;-55
2022/08/27 06:24:49;;;;;;;15.20;10.70;;;21.20;99.90;;;;;;5111779;28;20023;-53
2022/08/27 06:27:17;;;;;;;18.70;11.77;;;21.20;99.90;;;;;;5108046;28;20027;-53
2022/08/27 06:29:43;;;;;;;16.13;10.95;;;21.20;99.90;;;;;;5111425;28;20387;-56
2022/08/27 06:32:11;;;;;;;18.85;11.68;;;21.30;99.90;;;;;;5091535;28;20063;-61
2022/08/27 06:34:37;;;;;;;17.08;11.32;;;21.30;99.90;;;;;;5108629;28;20180;-60
2022/08/27 06:37:03;;;;;;;20.10;12.30;;;21.30;99.90;;;;;;5091259;28;20086;-61
2022/08/27 06:39:30;;;;;;;16.90;11.10;;;21.30;99.90;;;;;;5108819;28;20490;-60
2022/08/27 06:41:56;;;;;;;14.85;10.73;;;21.40;99.90;;;;;;5111109;28;20023;-61
2022/08/27 06:44:23;;;;;;;16.88;10.10;;;21.40;99.90;;;;;;5089561;28;20020;-60
2022/08/27 06:46:49;;;;;;;15.05;9.95;;;21.40;99.90;;;;;;5110592;28;20032;-60
2022/08/27 06:49:14;;;;;;;14.13;9.90;;;21.40;99.90;;;;;;5089485;28;20039;-61
2022/08/27 06:51:45;;;;;;;14.65;10.95;;;21.40;99.90;;;;;;5110239;28;20031;-60
2022/08/27 06:54:12;;;;;;;14.18;11.23;;;21.40;99.90;;;;;;5100696;28;20027;-60
2022/08/27 06:56:40;;;;;;;11.98;10.02;;;21.40;99.90;;;;;;5110705;28;20541;-60
2022/08/27 06:59:08;;;;;;;13.25;10.32;;;21.40;99.90;;;;;;5088992;28;20034;-60
2022/08/27 07:01:37;;;;;;;14.50;9.93;;;21.40;99.90;;;;;;5110406;28;20032;-60
2022/08/27 07:04:06;;;;;;;13.38;10.55;;;21.40;99.90;;;;;;5088885;28;20024;-61
2022/08/27 07:06:32;;;;;;;13.32;10.23;;;21.50;99.90;;;;;;5110503;28;20020;-59
2022/08/27 07:08:58;;;;;;;11.68;9.93;;;21.50;99.90;;;;;;5088945;28;20131;-61
2022/08/27 07:11:25;;;;;;;13.05;9.68;;;21.50;99.90;;;;;;5108604;28;20028;-61
2022/08/27 07:13:51;;;;;;;11.93;9.98;;;21.60;99.90;;;;;;5089048;27;20040;-61
2022/08/27 07:16:20;;;;;;;12.00;9.48;;;21.60;99.90;;;;;;5109954;28;20554;-61
2022/08/27 07:18:47;;;;;;;11.18;8.82;;;21.50;99.90;;;;;;5088375;28;20028;-61
2022/08/27 07:21:13;;;;;;;14.43;9.38;;;21.60;99.90;;;;;;5109852;28;20043;-61
2022/08/27 07:23:39;;;;;;;11.85;10.35;;;21.70;99.90;;;;;;5093144;28;20032;-61
2022/08/27 07:26:12;;;;;;;10.88;9.15;;;21.80;99.90;;;;;;5090768;28;20036;-61
2022/08/27 07:28:39;;;;;;;13.93;10.88;;;21.80;99.90;;;;;;5107769;28;20375;-60
2022/08/27 07:31:07;;;;;;;14.95;10.48;;;22.00;99.90;;;;;;5088969;28;20028;-60
2022/08/27 07:33:34;;;;;;;11.15;8.48;;;22.00;99.90;;;;;;5107870;28;20035;-60
2022/08/27 07:36:00;;;;;;;12.10;9.63;;;22.10;99.90;;;;;;5090257;28;20028;-61
2022/08/27 07:38:26;;;;;;;12.23;9.82;;;22.20;99.90;;;;;;5107633;28;20084;-60
2022/08/27 07:40:51;;;;;;;15.63;10.65;;;22.20;99.90;;;;;;5090105;28;20449;-61
2022/08/27 07:46:04;;;;;;;9.30;8.27;;;22.20;99.90;;;;;;5109961;28;20051;-61
2022/08/27 07:48:32;;;;;;;11.70;9.35;;;22.30;99.90;;;;;;5096131;28;20047;-61
2022/08/27 07:50:57;;;;;;;11.70;8.95;;;22.40;99.90;;;;;;5089776;28;20043;-61
2022/08/27 07:53:23;;;;;;;10.30;8.55;;;22.50;99.90;;;;;;5107296;28;20023;-61
2022/08/27 07:55:48;;;;;;;9.13;7.53;;;22.60;99.90;;;;;;5109823;28;20019;-61
2022/08/27 07:58:14;;;;;;;10.45;8.35;;;22.70;99.90;;;;;;5094371;28;20110;-61
2022/08/27 08:00:43;;;;;;;9.80;8.10;;;22.80;99.90;;;;;;5109712;28;20483;-60
2022/08/27 08:03:10;;;;;;;10.13;7.90;;;22.90;99.90;;;;;;5093165;28;20023;-60
2022/08/27 08:05:43;;;;;;;10.88;9.15;;;23.00;99.90;;;;;;5109658;28;20024;-60
2022/08/27 08:08:10;;;;;;;9.60;8.20;;;23.20;99.90;;;;;;5077125;28;20081;-61
2022/08/27 08:10:36;;;;;;;9.80;8.75;;;23.30;99.90;;;;;;5109524;28;20107;-60
2022/08/27 08:13:02;;;;;;;9.60;8.60;;;23.30;99.90;;;;;;5091435;28;20042;-61
2022/08/27 08:15:28;;;;;;;18.83;8.68;;;23.40;99.90;;;;;;5109567;28;20027;-61
2022/08/27 08:17:54;;;;;;;10.70;8.85;;;23.50;99.90;;;;;;5090265;28;20521;-60
2022/08/27 08:20:20;;;;;;;9.73;8.68;;;23.70;99.90;;;;;;5109388;28;20038;-61
2022/08/27 08:22:46;;;;;;;10.15;8.00;;;23.70;99.90;;;;;;5092053;28;20102;-61
2022/08/27 08:25:12;;;;;;;9.15;7.80;;;23.80;99.90;;;;;;5109532;28;20424;-61
2022/08/27 08:27:38;;;;;;;8.80;7.90;;;24.00;99.90;;;;;;5087501;28;20024;-61
2022/08/27 08:30:04;;;;;;;10.68;8.27;;;24.00;99.90;;;;;;5109355;28;20043;-61
2022/08/27 08:32:30;;;;;;;11.38;8.50;;;23.90;99.90;;;;;;5089304;28;20036;-61
2022/08/27 08:34:55;;;;;;;9.55;8.45;;;24.00;99.90;;;;;;5106546;28;20055;-61
2022/08/27 08:37:21;;;;;;;10.60;7.72;;;24.00;99.90;;;;;;5109044;28;20028;-61
2022/08/27 08:39:46;;;;;;;10.30;8.25;;;23.90;99.90;;;;;;5087413;28;20043;-61
2022/08/27 08:42:34;;;;;;;8.25;7.38;;;23.90;99.90;;;;;;5108314;28;20031;-61
2022/08/27 08:45:02;;;;;;;7.97;7.13;;;23.90;99.90;;;;;;5106240;28;20031;-61
2022/08/27 08:47:43;;;;;;;8.52;7.60;;;23.80;99.90;;;;;;5109080;28;20016;-61
2022/08/27 08:50:33;;;;;;;8.65;7.53;;;23.80;99.90;;;;;;5068466;28;20047;-61
2022/08/27 08:53:35;;;;;;;7.65;6.68;;;23.70;99.90;;;;;;5071816;28;20492;-61
2022/08/27 08:56:04;;;;;;;8.43;7.53;;;23.60;99.90;;;;;;5108894;28;20170;-61
2022/08/27 08:58:44;;;;;;;7.30;6.50;;;23.40;99.90;;;;;;5094966;28;20031;-61
2022/08/27 09:01:10;;;;;;;8.00;7.20;;;23.50;99.90;;;;;;5113210;28;20497;-58
2022/08/27 09:03:40;;;;;;;8.60;6.78;;;23.40;99.90;;;;;;5098604;28;20020;-58
2022/08/27 09:06:37;;;;;;;7.95;6.50;;;23.30;99.90;;;;;;5113052;28;20087;-49
2022/08/27 09:09:19;;;;;;;7.93;6.22;;;23.30;99.90;;;;;;5092391;28;20039;-47
2022/08/27 09:12:02;;;;;;;6.88;5.35;;;23.30;99.90;;;;;;5072293;28;20221;-48
2022/08/27 09:14:39;;;;;;;6.07;5.47;;;23.30;99.90;;;;;;5098924;28;20107;-47
2022/08/27 09:17:05;;;;;;;6.68;5.30;;;23.40;99.90;;;;;;5072422;28;20473;-47
2022/08/27 09:19:33;;;;;;;6.32;4.55;;;23.40;99.90;;;;;;5109822;28;20062;-49
2022/08/27 09:22:12;;;;;;;6.60;5.72;;;23.40;99.90;;;;;;5102140;28;20024;-48
2022/08/27 09:24:59;;;;;;;5.00;4.50;;;23.50;99.90;;;;;;5106429;28;20530;-48
2022/08/27 09:27:24;;;;;;;7.35;4.78;;;23.50;99.90;;;;;;5072030;28;20032;-47
2022/08/27 09:29:52;;;;;;;6.40;5.35;;;23.60;99.90;;;;;;5109506;28;20519;-49
2022/08/27 09:32:27;;;;;;;5.68;5.15;;;23.40;99.90;;;;;;5112513;28;20112;-51
2022/08/27 09:34:57;;;;;;;6.22;5.50;;;23.40;99.90;;;;;;5104247;28;20039;-48
2022/08/27 09:37:27;;;;;;;6.32;5.03;;;23.40;99.90;;;;;;5071905;28;20020;-54
2022/08/27 09:40:03;;;;;;;4.70;4.30;;;23.40;99.90;;;;;;5110380;28;20024;-48
2022/08/27 09:42:36;;;;;;;5.15;4.53;;;23.50;99.90;;;;;;5071761;28;20029;-52
2022/08/27 09:45:07;;;;;;;6.88;5.60;;;23.50;99.90;;;;;;5110210;28;20044;-49
2022/08/27 09:47:54;;;;;;;4.90;4.40;;;23.50;99.90;;;;;;5071832;28;20044;-49
2022/08/27 09:50:23;;;;;;;5.40;4.78;;;23.40;99.90;;;;;;5071510;28;20490;-50
2022/08/27 09:52:53;;;;;;;6.60;4.82;;;23.40;99.90;;;;;;5111739;28;20050;-46
2022/08/27 09:55:37;;;;;;;6.50;5.05;;;23.30;99.90;;;;;;5112191;28;20495;-47
2022/08/27 09:58:05;;;;;;;6.45;5.82;;;23.30;99.90;;;;;;5071766;28;20040;-52
2022/08/27 10:00:39;;;;;;;5.78;5.00;;;23.30;99.90;;;;;;5111957;28;20116;-48
2022/08/27 10:03:06;;;;;;;5.65;5.05;;;23.40;99.90;;;;;;5091342;28;20044;-46
2022/08/27 10:05:41;;;;;;;5.45;4.55;;;23.30;99.90;;;;;;5111933;28;20026;-47
2022/08/27 10:08:20;;;;;;;5.70;5.20;;;23.30;99.90;;;;;;5072217;28;20056;-47
2022/08/27 10:10:54;;;;;;;6.95;6.25;;;23.30;99.90;;;;;;5110858;28;20166;-46
2022/08/27 10:13:32;;;;;;;6.10;5.45;;;23.20;99.90;;;;;;5073942;28;20027;-48
2022/08/27 10:16:30;;;;;;;6.82;4.75;;;23.10;99.90;;;;;;5111752;28;20446;-47
2022/08/27 10:19:24;;;;;;;5.47;4.85;;;23.30;99.90;;;;;;5084961;28;20083;-47
2022/08/27 10:22:10;;;;;;;6.13;5.43;;;23.40;99.90;;;;;;5073141;28;20020;-47
2022/08/27 10:25:00;;;;;;;5.95;5.30;;;23.50;99.90;;;;;;5108274;28;20104;-46
2022/08/27 10:27:55;;;;;;;6.20;4.95;;;23.60;99.90;;;;;;5070991;28;20111;-46
2022/08/27 10:30:56;;;;;;;5.70;4.55;;;23.60;99.90;;;;;;5108252;28;20468;-49
2022/08/27 10:33:40;;;;;;;4.53;4.13;;;23.70;99.90;;;;;;5074808;28;20901;-49
2022/08/27 10:36:08;;;;;;;5.72;5.13;;;23.80;99.90;;;;;;5111362;28;20034;-47
2022/08/27 10:38:41;;;;;;;4.93;4.50;;;23.90;99.90;;;;;;5109193;28;20475;-50
2022/08/27 10:41:28;;;;;;;5.70;4.53;;;23.90;99.90;;;;;;5111219;28;20069;-47
2022/08/27 10:44:16;;;;;;;5.10;4.60;;;24.00;99.90;;;;;;5095929;28;20036;-50
2022/08/27 10:47:07;;;;;;;4.45;4.05;;;24.10;99.90;;;;;;5111218;28;20020;-47
2022/08/27 10:50:04;;;;;;;4.47;4.05;;;24.20;99.90;;;;;;5101106;28;20038;-49
2022/08/27 10:52:44;;;;;;;4.70;4.30;;;24.30;99.90;;;;;;5070531;28;20108;-50
2022/08/27 10:55:21;;;;;;;5.07;4.57;;;24.40;99.90;;;;;;5103194;28;20040;-47
2022/08/27 10:58:17;;;;;;;4.45;4.05;;;24.40;99.90;;;;;;5070451;28;20078;-51
2022/08/27 11:01:01;;;;;;;4.67;4.17;;;24.40;99.90;;;;;;5070341;28;20473;-50
2022/08/27 11:03:34;;;;;;;4.10;3.75;;;24.30;99.90;;;;;;5072323;28;20267;-48
2022/08/27 11:06:07;;;;;;;5.72;4.07;;;24.30;99.90;;;;;;5110750;28;20445;-51
2022/08/27 11:08:50;;;;;;;5.82;4.75;;;24.30;99.90;;;;;;5074814;28;20031;-51
2022/08/27 11:11:47;;;;;;;5.55;4.70;;;24.30;99.90;;;;;;5110735;28;20047;-50
2022/08/27 11:14:34;;;;;;;4.25;3.85;;;24.30;99.90;;;;;;5097233;28;20034;-49
2022/08/27 11:17:14;;;;;;;7.45;4.55;;;24.30;99.90;;;;;;5070095;28;20107;-49
2022/08/27 11:20:10;;;;;;;5.15;3.83;;;24.40;99.90;;;;;;5092600;28;20394;-49
2022/08/27 11:23:09;;;;;;;4.43;4.05;;;24.40;99.90;;;;;;5081774;28;20084;-47
2022/08/27 11:25:55;;;;;;;4.40;4.00;;;24.30;97.40;;;;;;5107882;28;20412;-51
2022/08/27 11:28:44;;;;;;;;;;;24.30;99.80;;;;;;5070430;28;20032;-52
2022/08/27 11:31:33;;;;;;;4.47;4.07;;;24.20;97.40;;;;;;5106915;28;20010;-48
2022/08/27 11:34:25;;;;;;;4.38;3.97;;;24.20;99.90;;;;;;5083602;28;20542;-49
2022/08/27 11:37:11;;;;;;;7.30;4.45;;;24.30;99.70;;;;;;5068300;28;20115;-48
2022/08/27 11:39:37;;;;;;;4.55;4.13;;;24.40;99.90;;;;;;5090514;28;20054;-48
2022/08/27 11:42:40;;;;;;;4.43;4.03;;;24.50;99.60;;;;;;5090275;28;20052;-50
2022/08/27 11:45:18;;;;;;;4.13;3.72;;;24.60;98.70;;;;;;5098181;28;20031;-52
2022/08/27 11:47:53;;;;;;;6.53;3.53;;;24.80;98.60;;;;;;5109788;28;20243;-52
2022/08/27 11:50:21;;;;;;;4.18;3.67;;;24.90;97.20;;;;;;5087750;28;20038;-49
2022/08/27 11:53:02;;;;;;;4.20;3.80;;;24.90;97.10;;;;;;5109263;28;20073;-49
2022/08/27 11:55:37;;;;;;;4.75;4.32;;;25.00;95.00;;;;;;5087703;28;20024;-53
2022/08/27 11:58:24;;;;;;;4.20;3.80;;;25.10;96.00;;;;;;5069335;28;20032;-48
2022/08/27 12:00:52;;;;;;;4.55;4.13;;;25.20;91.10;;;;;;5069029;28;20510;-50
2022/08/27 12:03:17;;;;;;;4.45;4.05;;;25.10;95.20;;;;;;5108920;28;20031;-48
2022/08/27 12:05:46;;;;;;;4.93;4.25;;;25.20;95.10;;;;;;5107708;28;20032;-48
2022/08/27 12:08:33;;;;;;;6.40;4.63;;;25.20;95.10;;;;;;5089294;28;20055;-48
2022/08/27 12:11:17;;;;;;;4.78;4.32;;;25.20;93.50;;;;;;5069036;28;20029;-48
2022/08/27 12:14:04;;;;;;;5.03;3.97;;;25.30;94.00;;;;;;5072734;28;20340;-52
2022/08/27 12:16:41;;;;;;;5.03;4.55;;;25.40;94.30;;;;;;5109449;28;20020;-52
2022/08/27 12:19:28;;;;;;;5.78;4.72;;;25.40;93.70;;;;;;5093857;28;20034;-49
2022/08/27 12:22:24;;;;;;;4.60;4.20;;;25.40;93.00;;;;;;5086111;28;20036;-48
2022/08/27 12:24:52;;;;;;;5.82;4.70;;;25.30;92.10;;;;;;5107512;28;20028;-48
2022/08/27 12:27:20;;;;;;;5.93;4.28;;;25.30;94.00;;;;;;5089165;28;20066;-52
2022/08/27 12:29:57;;;;;;;5.38;4.88;;;25.30;94.10;;;;;;5106636;28;20039;-47
2022/08/27 12:32:31;;;;;;;7.60;5.40;;;25.30;93.70;;;;;;5109233;28;20112;-49
2022/08/27 12:35:18;;;;;;;6.07;5.00;;;25.30;93.50;;;;;;5091710;28;20453;-48
2022/08/27 12:37:52;;;;;;;7.47;4.90;;;25.40;92.60;;;;;;5109201;28;20540;-50
2022/08/27 12:40:29;;;;;;;6.53;4.97;;;25.50;91.30;;;;;;5087068;28;20414;-52
2022/08/27 12:43:13;;;;;;;6.00;5.40;;;25.60;91.60;;;;;;5068455;28;20290;-48
2022/08/27 12:45:46;;;;;;;5.50;5.00;;;25.70;89.70;;;;;;5106836;28;20358;-50
2022/08/27 12:48:13;;;;;;;5.95;5.35;;;25.70;90.70;;;;;;5068755;28;20910;-48
2022/08/27 12:50:38;;;;;;;5.90;5.30;;;25.80;91.30;;;;;;5106148;28;20028;-48
2022/08/27 12:53:31;;;;;;;6.57;4.82;;;25.90;90.60;;;;;;5108884;28;20403;-47
2022/08/27 12:56:24;;;;;;;5.80;5.00;;;26.10;90.40;;;;;;5068413;28;20086;-48
2022/08/27 12:59:11;;;;;;;5.40;4.90;;;26.30;88.70;;;;;;5071738;28;20392;-48
2022/08/27 13:02:30;;;;;;;5.80;5.20;;;26.40;84.20;;;;;;5108824;28;20027;-50
2022/08/27 13:05:00;;;;;;;5.55;4.88;;;26.40;78.20;;;;;;5073140;28;20400;-47